createdAt,value
2023-11-29T00:01:37.947Z,99.90
2023-11-29T00:04:06.381Z,99.90
2023-11-29T00:06:35.808Z,99.90
2023-11-29T00:09:06.155Z,99.90
2023-11-29T00:11:35.033Z,99.90
2023-11-29T00:14:03.131Z,99.90
2023-11-29T00:16:32.974Z,99.90
2023-11-29T00:19:01.240Z,99.90
2023-11-29T00:21:29.627Z,99.90
2023-11-29T00:23:59.442Z,99.90
2023-11-29T00:26:27.515Z,99.90
2023-11-29T00:28:55.516Z,99.90
2023-11-29T00:31:23.530Z,99.90
2023-11-29T00:33:51.538Z,99.90
2023-11-29T00:36:19.667Z,99.90
2023-11-29T00:38:47.871Z,99.90
2023-11-29T00:41:17.348Z,99.90
2023-11-29T00:43:45.381Z,99.90
2023-11-29T00:46:13.487Z,99.90
2023-11-29T00:48:41.516Z,99.90
2023-11-29T00:51:09.578Z,99.90
2023-11-29T00:53:37.661Z,99.90
2023-11-29T00:56:06.559Z,99.90
2023-11-29T00:58:35.908Z,99.90
2023-11-29T01:01:03.986Z,99.90
2023-11-29T01:03:32.100Z,99.90
2023-11-29T01:06:00.902Z,99.90
2023-11-29T01:08:29.033Z,99.90
2023-11-29T01:10:57.068Z,99.90
2023-11-29T01:13:25.113Z,99.90
2023-11-29T01:15:54.458Z,99.90
2023-11-29T01:18:22.935Z,99.90
2023-11-29T01:20:51.098Z,99.90
2023-11-29T01:23:19.238Z,99.90
2023-11-29T01:25:47.280Z,99.90
2023-11-29T01:28:15.272Z,99.90
2023-11-29T01:30:43.294Z,99.90
2023-11-29T01:33:12.910Z,99.90
2023-11-29T01:35:41.019Z,99.90
2023-11-29T01:38:09.659Z,99.90
2023-11-29T01:40:37.747Z,99.90
2023-11-29T01:43:05.839Z,99.90
2023-11-29T01:45:33.940Z,99.90
2023-11-29T01:48:02.844Z,99.90
2023-11-29T01:50:38.023Z,99.90
2023-11-29T01:53:07.289Z,99.90
2023-11-29T01:55:38.855Z,99.90
2023-11-29T01:58:07.020Z,99.90
2023-11-29T02:00:35.070Z,99.90
2023-11-29T02:03:02.511Z,99.90
2023-11-29T02:05:32.113Z,99.90
2023-11-29T02:08:00.377Z,99.90
2023-11-29T02:10:28.631Z,99.90
2023-11-29T02:12:57.040Z,99.90
2023-11-29T02:15:25.043Z,99.90
2023-11-29T02:17:53.120Z,99.90
2023-11-29T02:20:21.610Z,99.90
2023-11-29T02:22:57.877Z,99.90
2023-11-29T02:25:27.301Z,99.90
2023-11-29T02:27:55.476Z,99.90
2023-11-29T02:30:23.526Z,99.90
2023-11-29T02:32:51.692Z,99.90
2023-11-29T02:35:19.751Z,99.90
2023-11-29T02:37:47.799Z,99.90
2023-11-29T02:40:15.805Z,99.90
2023-11-29T02:42:45.242Z,99.90
2023-11-29T02:45:13.820Z,99.90
2023-11-29T02:47:41.956Z,99.90
2023-11-29T02:50:10.880Z,99.90
2023-11-29T02:52:38.908Z,99.90
2023-11-29T02:55:08.290Z,99.90
2023-11-29T02:57:36.309Z,99.90
2023-11-29T03:00:07.955Z,99.90
2023-11-29T03:02:36.140Z,99.90
2023-11-29T03:05:04.394Z,99.90
2023-11-29T03:07:32.358Z,99.90
2023-11-29T03:10:00.335Z,99.90
2023-11-29T03:12:28.319Z,99.90
2023-11-29T03:14:56.348Z,99.90
2023-11-29T03:17:25.735Z,99.90
2023-11-29T03:19:53.745Z,99.90
2023-11-29T03:22:21.756Z,99.90
2023-11-29T03:24:49.747Z,99.90
2023-11-29T03:27:19.976Z,99.90
2023-11-29T03:29:48.095Z,99.90
2023-11-29T03:32:16.125Z,99.90
2023-11-29T03:34:45.477Z,99.90
2023-11-29T03:37:13.511Z,99.90
2023-11-29T03:39:41.504Z,99.90
2023-11-29T03:42:09.458Z,99.90
2023-11-29T03:44:37.653Z,99.90
2023-11-29T03:47:06.373Z,99.90
2023-11-29T03:49:34.353Z,99.90
2023-11-29T03:52:03.750Z,99.90
2023-11-29T03:54:31.752Z,99.90
2023-11-29T03:56:59.745Z,99.90
2023-11-29T03:59:27.815Z,99.90
2023-11-29T04:01:55.920Z,99.90
2023-11-29T04:04:24.013Z,99.90
2023-11-29T04:06:52.013Z,99.90
2023-11-29T04:09:21.337Z,99.90
2023-11-29T04:11:49.459Z,99.90
2023-11-29T04:14:17.655Z,99.90
2023-11-29T04:16:45.717Z,99.90
2023-11-29T04:19:13.743Z,99.90
2023-11-29T04:21:42.418Z,99.90
2023-11-29T04:24:10.428Z,99.90
2023-11-29T04:26:41.292Z,99.90
2023-11-29T04:29:10.684Z,99.90
2023-11-29T04:31:40.294Z,99.90
2023-11-29T04:34:18.400Z,99.90
2023-11-29T04:36:55.892Z,99.90
2023-11-29T04:39:24.077Z,99.90
2023-11-29T04:41:53.518Z,99.90
2023-11-29T04:44:21.570Z,99.90
2023-11-29T04:46:49.646Z,99.90
2023-11-29T04:49:17.680Z,99.90
2023-11-29T04:51:45.682Z,99.90
2023-11-29T04:54:13.862Z,99.90
2023-11-29T04:56:41.856Z,99.90
2023-11-29T04:59:11.406Z,99.90
2023-11-29T05:01:39.868Z,99.90
2023-11-29T05:04:07.913Z,99.90
2023-11-29T05:06:35.886Z,99.90
2023-11-29T05:09:06.896Z,99.90
2023-11-29T05:11:34.989Z,99.90
2023-11-29T05:14:03.974Z,99.90
2023-11-29T05:16:33.736Z,99.90
2023-11-29T05:19:01.994Z,99.90
2023-11-29T05:21:30.165Z,99.90
2023-11-29T05:23:58.155Z,99.90
2023-11-29T05:26:26.405Z,99.90
2023-11-29T05:28:54.467Z,99.90
2023-11-29T05:31:22.533Z,99.90
2023-11-29T05:33:53.256Z,99.90
2023-11-29T05:36:22.677Z,99.90
2023-11-29T05:38:50.763Z,99.90
2023-11-29T05:41:18.863Z,99.90
2023-11-29T05:43:46.857Z,99.90
2023-11-29T05:46:15.027Z,99.90
2023-11-29T05:48:43.409Z,99.90
2023-11-29T05:51:14.176Z,99.90
2023-11-29T05:53:42.290Z,99.90
2023-11-29T05:56:11.576Z,99.90
2023-11-29T05:58:44.006Z,99.90
2023-11-29T06:01:12.081Z,99.90
2023-11-29T06:03:40.240Z,99.90
2023-11-29T06:06:08.533Z,99.90
2023-11-29T06:08:37.982Z,99.90
2023-11-29T06:11:06.537Z,99.90
2023-11-29T06:13:34.568Z,99.90
2023-11-29T06:16:02.749Z,99.90
2023-11-29T06:18:30.940Z,99.90
2023-11-29T06:20:59.645Z,99.90
2023-11-29T06:23:28.237Z,99.90
2023-11-29T06:25:57.624Z,99.90
2023-11-29T06:28:25.673Z,99.90
2023-11-29T06:30:55.578Z,99.90
2023-11-29T06:33:23.718Z,99.90
2023-11-29T06:35:52.048Z,99.90
2023-11-29T06:38:23.293Z,99.90
2023-11-29T06:40:57.111Z,99.90
2023-11-29T06:43:31.009Z,99.90
2023-11-29T06:45:59.096Z,99.90
2023-11-29T06:48:27.152Z,99.90
2023-11-29T06:50:55.584Z,99.90
2023-11-29T06:53:23.686Z,99.90
2023-11-29T06:55:51.778Z,99.90
2023-11-29T06:58:24.047Z,99.90
2023-11-29T07:00:54.526Z,99.90
2023-11-29T07:03:22.796Z,99.90
2023-11-29T07:05:51.637Z,99.90
2023-11-29T07:08:19.707Z,99.90
2023-11-29T07:10:47.820Z,99.90
2023-11-29T07:13:16.175Z,99.90
2023-11-29T07:15:45.398Z,99.90
2023-11-29T07:18:14.818Z,99.90
2023-11-29T07:20:46.057Z,99.90
2023-11-29T07:23:14.992Z,99.90
2023-11-29T07:25:42.999Z,99.90
2023-11-29T07:28:11.078Z,99.90
2023-11-29T07:30:39.091Z,99.90
2023-11-29T07:33:07.243Z,99.90
2023-11-29T07:35:36.654Z,99.90
2023-11-29T07:38:04.950Z,99.90
2023-11-29T07:40:33.847Z,99.90
2023-11-29T07:43:01.927Z,99.90
2023-11-29T07:45:30.044Z,99.90
2023-11-29T07:47:58.205Z,99.90
2023-11-29T07:50:26.421Z,99.90
2023-11-29T07:52:55.861Z,99.90
2023-11-29T07:55:23.837Z,99.90
2023-11-29T07:57:51.929Z,99.90
2023-11-29T08:00:20.512Z,99.90
2023-11-29T08:02:48.515Z,99.90
2023-11-29T08:05:16.960Z,99.90
2023-11-29T08:07:44.969Z,99.90
2023-11-29T08:10:14.559Z,99.90
2023-11-29T08:12:43.780Z,99.90
2023-11-29T08:15:12.719Z,99.90
2023-11-29T08:17:41.021Z,99.90
2023-11-29T08:20:10.634Z,99.90
2023-11-29T08:22:38.624Z,99.90
2023-11-29T08:25:07.179Z,99.90
2023-11-29T08:27:36.570Z,99.90
2023-11-29T08:30:05.135Z,99.90
2023-11-29T08:32:33.239Z,99.90
2023-11-29T08:35:01.273Z,99.90
2023-11-29T08:37:29.242Z,99.90
2023-11-29T08:39:57.236Z,99.90
2023-11-29T08:42:25.665Z,99.90
2023-11-29T08:44:55.143Z,99.90
2023-11-29T08:47:23.127Z,99.90
2023-11-29T08:49:51.119Z,99.90
2023-11-29T08:52:21.496Z,99.90
2023-11-29T08:54:51.375Z,99.90
2023-11-29T08:57:22.774Z,99.90
2023-11-29T08:59:51.338Z,99.90
2023-11-29T09:02:22.443Z,99.90
2023-11-29T09:04:50.474Z,99.90
2023-11-29T09:07:19.734Z,99.90
2023-11-29T09:09:48.796Z,99.90
2023-11-29T09:12:17.299Z,99.90
2023-11-29T09:14:51.751Z,99.90
2023-11-29T09:17:21.500Z,99.90
2023-11-29T09:19:49.552Z,99.90
2023-11-29T09:22:18.558Z,99.90
2023-11-29T09:24:46.578Z,99.90
2023-11-29T09:27:14.546Z,99.90
2023-11-29T09:29:42.758Z,99.90
2023-11-29T09:32:11.094Z,98.90
2023-11-29T09:34:40.429Z,98.00
2023-11-29T09:37:08.455Z,97.80
2023-11-29T09:39:36.491Z,97.80
2023-11-29T09:42:05.770Z,97.40
2023-11-29T09:44:37.244Z,97.20
2023-11-29T09:47:06.183Z,97.30
2023-11-29T09:49:34.514Z,97.30
2023-11-29T09:52:03.941Z,97.40
2023-11-29T09:54:32.436Z,97.60
2023-11-29T09:57:00.512Z,97.50
2023-11-29T09:59:28.581Z,97.70
2023-11-29T10:01:56.621Z,97.70
2023-11-29T10:04:26.824Z,97.60
2023-11-29T10:06:55.598Z,97.60
2023-11-29T10:09:26.525Z,97.40
2023-11-29T10:11:56.007Z,97.20
2023-11-29T10:14:23.998Z,97.00
2023-11-29T10:16:54.143Z,96.00
2023-11-29T10:19:23.929Z,96.10
2023-11-29T10:21:53.161Z,96.00
2023-11-29T10:24:26.916Z,95.70
2023-11-29T10:26:55.510Z,95.20
2023-11-29T10:29:23.902Z,94.90
2023-11-29T10:31:53.493Z,94.40
2023-11-29T10:34:22.305Z,94.00
2023-11-29T10:36:50.448Z,93.40
2023-11-29T10:39:19.913Z,92.60
2023-11-29T10:41:53.415Z,91.50
2023-11-29T10:44:24.648Z,91.10
2023-11-29T10:46:56.347Z,90.20
2023-11-29T10:49:31.799Z,89.20
2023-11-29T10:52:00.348Z,88.30
2023-11-29T10:54:39.833Z,86.30
2023-11-29T10:57:11.249Z,85.60
2023-11-29T10:59:43.409Z,86.00
2023-11-29T11:02:11.527Z,86.30
2023-11-29T11:04:46.361Z,86.00
2023-11-29T11:07:38.752Z,84.90
2023-11-29T11:10:09.427Z,84.50
2023-11-29T11:12:39.540Z,84.50
2023-11-29T11:15:15.026Z,83.20
2023-11-29T11:17:44.938Z,81.40
2023-11-29T11:20:13.838Z,80.60
2023-11-29T11:22:46.625Z,80.70
2023-11-29T11:25:17.238Z,80.20
2023-11-29T11:27:49.125Z,79.20
2023-11-29T11:30:35.071Z,76.60
2023-11-29T11:33:03.184Z,76.90
2023-11-29T11:35:35.460Z,77.30
2023-11-29T11:38:07.514Z,77.30
2023-11-29T11:40:39.074Z,75.30
2023-11-29T11:43:10.265Z,74.20
2023-11-29T11:45:38.982Z,74.40
2023-11-29T11:48:08.974Z,74.80
2023-11-29T11:50:37.573Z,74.90
2023-11-29T11:53:07.310Z,74.60
2023-11-29T11:55:36.638Z,74.80
2023-11-29T11:58:05.918Z,74.90
2023-11-29T12:00:35.639Z,75.20
2023-11-29T12:03:06.015Z,75.30
2023-11-29T12:05:34.485Z,75.60
2023-11-29T12:08:02.785Z,75.80
2023-11-29T12:10:32.291Z,76.00
2023-11-29T12:13:02.151Z,76.40
2023-11-29T12:15:34.147Z,76.40
2023-11-29T12:18:04.162Z,77.30
2023-11-29T12:20:34.063Z,77.50
2023-11-29T12:23:03.461Z,77.90
2023-11-29T12:25:31.436Z,78.80
2023-11-29T12:28:02.374Z,79.60
2023-11-29T12:30:31.302Z,79.80
2023-11-29T12:32:59.450Z,79.90
2023-11-29T12:35:28.869Z,79.60
2023-11-29T12:37:57.133Z,79.60
2023-11-29T12:40:26.285Z,80.00
2023-11-29T12:42:54.389Z,80.40
2023-11-29T12:45:22.353Z,80.90
2023-11-29T12:47:51.254Z,81.30
2023-11-29T12:50:19.431Z,82.00
2023-11-29T12:52:48.744Z,83.10
2023-11-29T12:55:16.866Z,83.90
2023-11-29T12:57:44.851Z,84.90
2023-11-29T13:00:14.327Z,85.90
2023-11-29T13:02:44.479Z,87.20
2023-11-29T13:05:13.262Z,87.70
2023-11-29T13:07:41.249Z,88.50
2023-11-29T13:10:12.843Z,89.20
2023-11-29T13:12:40.862Z,90.00
2023-11-29T13:15:10.825Z,90.30
2023-11-29T13:17:39.033Z,90.30
2023-11-29T13:20:09.504Z,90.30
2023-11-29T13:22:37.537Z,90.40
2023-11-29T13:25:06.152Z,90.50
2023-11-29T13:27:35.513Z,90.40
2023-11-29T13:30:04.137Z,90.50
2023-11-29T13:32:32.505Z,90.90
2023-11-29T13:35:00.572Z,91.50
2023-11-29T13:37:28.790Z,91.60
2023-11-29T13:39:57.327Z,91.80
2023-11-29T13:42:26.121Z,91.80
2023-11-29T13:45:02.683Z,91.50
2023-11-29T13:47:30.838Z,91.30
2023-11-29T13:49:59.381Z,91.40
2023-11-29T13:52:28.337Z,91.60
2023-11-29T13:54:56.828Z,91.40
2023-11-29T13:57:24.832Z,91.40
2023-11-29T13:59:52.860Z,91.60
2023-11-29T14:02:22.311Z,91.70
2023-11-29T14:04:50.654Z,91.80
2023-11-29T14:07:19.204Z,92.20
2023-11-29T14:09:47.213Z,92.50
2023-11-29T14:12:15.401Z,92.90
2023-11-29T14:14:48.713Z,92.80
2023-11-29T14:17:17.006Z,92.80
2023-11-29T14:19:46.411Z,92.50
2023-11-29T14:22:15.538Z,92.40
2023-11-29T14:24:43.947Z,92.30
2023-11-29T14:27:11.954Z,92.20
2023-11-29T14:29:40.050Z,92.10
2023-11-29T14:32:08.631Z,91.90
2023-11-29T14:34:36.688Z,92.00
2023-11-29T14:37:06.421Z,92.30
2023-11-29T14:39:36.463Z,92.40
2023-11-29T14:42:06.431Z,92.50
2023-11-29T14:44:34.594Z,92.70
2023-11-29T14:47:04.390Z,93.00
2023-11-29T14:49:34.098Z,93.30
2023-11-29T14:52:02.264Z,93.30
2023-11-29T14:54:31.681Z,93.20
2023-11-29T14:56:59.691Z,93.20
2023-11-29T14:59:27.664Z,93.40
2023-11-29T15:01:55.774Z,93.80
2023-11-29T15:04:23.775Z,93.80
2023-11-29T15:06:51.762Z,93.90
2023-11-29T15:09:20.440Z,94.00
2023-11-29T15:11:53.789Z,94.30
2023-11-29T15:14:22.148Z,94.80
2023-11-29T15:16:50.221Z,95.60
2023-11-29T15:19:18.231Z,96.00
2023-11-29T15:21:46.249Z,96.10
2023-11-29T15:24:14.363Z,96.10
2023-11-29T15:26:42.379Z,96.00
2023-11-29T15:29:11.884Z,96.00
2023-11-29T15:31:39.935Z,95.80
2023-11-29T15:34:08.067Z,95.60
2023-11-29T15:36:36.233Z,95.50
2023-11-29T15:39:04.772Z,95.30
2023-11-29T15:41:32.809Z,95.30
2023-11-29T15:44:00.850Z,95.10
2023-11-29T15:46:30.373Z,95.20
2023-11-29T15:48:58.628Z,95.20
2023-11-29T15:51:26.748Z,95.40
2023-11-29T15:53:54.833Z,95.50
2023-11-29T15:56:22.846Z,95.70
2023-11-29T15:58:50.823Z,95.90
2023-11-29T16:01:21.625Z,96.20
2023-11-29T16:03:51.806Z,96.30
2023-11-29T16:06:19.964Z,96.70
2023-11-29T16:08:48.041Z,96.90
2023-11-29T16:11:17.129Z,97.10
2023-11-29T16:13:46.686Z,97.30
2023-11-29T16:16:14.928Z,97.40
2023-11-29T16:18:43.579Z,97.30
2023-11-29T16:21:13.113Z,97.30
2023-11-29T16:23:41.128Z,97.40
2023-11-29T16:26:09.348Z,97.30
2023-11-29T16:28:39.755Z,97.40
2023-11-29T16:31:08.382Z,97.30
2023-11-29T16:33:36.603Z,97.50
2023-11-29T16:36:04.873Z,97.50
2023-11-29T16:38:34.302Z,97.40
2023-11-29T16:41:02.316Z,97.60
2023-11-29T16:43:30.733Z,97.70
2023-11-29T16:45:58.966Z,97.80
2023-11-29T16:48:27.241Z,98.20
2023-11-29T16:50:55.333Z,98.30
2023-11-29T16:53:27.590Z,98.60
2023-11-29T16:55:57.483Z,98.60
2023-11-29T16:58:25.507Z,98.70
2023-11-29T17:00:53.520Z,98.90
2023-11-29T17:03:21.757Z,98.90
2023-11-29T17:05:49.922Z,98.80
2023-11-29T17:08:18.047Z,98.90
2023-11-29T17:10:46.062Z,98.90
2023-11-29T17:13:16.217Z,98.80
2023-11-29T17:15:44.444Z,98.80
2023-11-29T17:18:12.759Z,98.80
2023-11-29T17:20:41.899Z,98.80
2023-11-29T17:23:09.954Z,98.80
2023-11-29T17:25:37.952Z,98.60
2023-11-29T17:28:06.110Z,98.60
2023-11-29T17:30:35.554Z,98.40
2023-11-29T17:33:03.796Z,98.40
2023-11-29T17:35:31.842Z,98.20
2023-11-29T17:37:59.851Z,98.20
2023-11-29T17:40:27.861Z,98.30
2023-11-29T17:42:55.837Z,98.40
2023-11-29T17:45:24.168Z,98.40
2023-11-29T17:47:53.641Z,98.40
2023-11-29T17:50:23.374Z,98.40
2023-11-29T17:52:51.538Z,98.50
2023-11-29T17:55:19.927Z,98.40
2023-11-29T17:57:47.951Z,98.50
2023-11-29T18:00:17.243Z,98.30
2023-11-29T18:02:45.426Z,98.20
2023-11-29T18:05:16.652Z,98.20
2023-11-29T18:07:44.843Z,98.20
2023-11-29T18:10:12.951Z,98.20
2023-11-29T18:12:41.081Z,98.20
2023-11-29T18:15:09.961Z,98.20
2023-11-29T18:17:38.105Z,98.10
2023-11-29T18:20:07.520Z,98.20
2023-11-29T18:22:36.857Z,98.30
2023-11-29T18:25:05.117Z,98.20
2023-11-29T18:27:33.157Z,98.20
2023-11-29T18:30:01.267Z,98.20
2023-11-29T18:32:29.312Z,98.20
2023-11-29T18:34:57.316Z,98.30
2023-11-29T18:37:25.333Z,98.40
2023-11-29T18:39:53.997Z,98.40
2023-11-29T18:42:22.908Z,98.70
2023-11-29T18:44:51.683Z,98.80
2023-11-29T18:47:19.764Z,99.30
2023-11-29T18:49:47.797Z,99.80
2023-11-29T18:52:15.772Z,99.90
2023-11-29T18:54:43.771Z,99.90
2023-11-29T18:57:13.217Z,99.90
2023-11-29T18:59:43.472Z,99.90
2023-11-29T19:02:12.232Z,99.90
2023-11-29T19:04:43.157Z,99.90
2023-11-29T19:07:11.517Z,99.90
2023-11-29T19:09:39.594Z,99.90
2023-11-29T19:12:08.452Z,99.90
2023-11-29T19:14:37.845Z,99.90
2023-11-29T19:17:06.236Z,99.90
2023-11-29T19:19:34.292Z,99.90
2023-11-29T19:22:02.390Z,99.90
2023-11-29T19:24:30.780Z,99.90
2023-11-29T19:26:58.797Z,99.90
2023-11-29T19:29:26.776Z,99.90
2023-11-29T19:31:56.110Z,99.90
2023-11-29T19:34:24.104Z,99.90
2023-11-29T19:36:52.100Z,99.90
2023-11-29T19:39:20.332Z,99.90
2023-11-29T19:41:48.539Z,99.90
2023-11-29T19:44:16.868Z,99.90
2023-11-29T19:46:44.962Z,99.90
2023-11-29T19:49:14.895Z,99.90
2023-11-29T19:51:42.864Z,99.90
2023-11-29T19:54:10.935Z,99.90
2023-11-29T19:56:39.122Z,99.90
2023-11-29T19:59:07.112Z,99.90
2023-11-29T20:01:36.371Z,99.90
2023-11-29T20:04:04.670Z,99.90
2023-11-29T20:06:39.224Z,99.90
2023-11-29T20:09:08.524Z,99.90
2023-11-29T20:11:37.711Z,99.90
2023-11-29T20:14:10.899Z,99.90
2023-11-29T20:16:44.696Z,99.90
2023-11-29T20:19:12.766Z,99.90
2023-11-29T20:21:42.123Z,99.90
2023-11-29T20:24:10.125Z,99.90
2023-11-29T20:26:38.096Z,99.90
2023-11-29T20:29:06.054Z,99.90
2023-11-29T20:31:34.106Z,99.90
2023-11-29T20:34:03.070Z,99.90
2023-11-29T20:36:31.103Z,99.90
2023-11-29T20:39:00.454Z,99.90
2023-11-29T20:41:30.141Z,99.90
2023-11-29T20:44:00.056Z,99.90
2023-11-29T20:46:28.020Z,99.90
2023-11-29T20:48:55.985Z,99.90
2023-11-29T20:51:24.260Z,99.90
2023-11-29T20:53:53.691Z,99.90
2023-11-29T20:56:23.155Z,99.90
2023-11-29T20:58:51.109Z,99.90
2023-11-29T21:01:19.329Z,99.90
2023-11-29T21:03:47.482Z,99.90
2023-11-29T21:06:15.790Z,99.90
2023-11-29T21:08:43.817Z,99.90
2023-11-29T21:11:11.932Z,99.90
2023-11-29T21:13:41.436Z,99.90
2023-11-29T21:16:09.594Z,99.90
2023-11-29T21:18:37.717Z,99.90
2023-11-29T21:21:05.999Z,99.90
2023-11-29T21:23:34.131Z,99.90
2023-11-29T21:26:02.185Z,99.90
2023-11-29T21:28:30.263Z,99.90
2023-11-29T21:30:59.593Z,99.90
2023-11-29T21:33:27.706Z,99.90
2023-11-29T21:35:55.735Z,99.90
2023-11-29T21:38:24.711Z,99.90
2023-11-29T21:40:52.970Z,99.90
2023-11-29T21:43:21.169Z,99.90
2023-11-29T21:45:49.197Z,99.90
2023-11-29T21:48:18.564Z,99.90
2023-11-29T21:50:46.575Z,99.90
2023-11-29T21:53:14.533Z,99.90
2023-11-29T21:55:42.558Z,99.90
2023-11-29T21:58:10.925Z,99.90
2023-11-29T22:00:39.462Z,99.90
2023-11-29T22:03:07.529Z,99.90
2023-11-29T22:05:37.824Z,99.90
2023-11-29T22:08:05.886Z,99.90
2023-11-29T22:10:35.306Z,99.90
2023-11-29T22:13:03.272Z,99.90
2023-11-29T22:15:31.308Z,99.90
2023-11-29T22:17:59.461Z,99.90
2023-11-29T22:20:28.035Z,99.90
2023-11-29T22:22:57.473Z,99.90
2023-11-29T22:25:25.544Z,99.90
2023-11-29T22:27:53.584Z,99.90
2023-11-29T22:30:21.618Z,99.90
2023-11-29T22:32:49.825Z,99.90
2023-11-29T22:35:18.619Z,99.90
2023-11-29T22:37:46.629Z,99.90
2023-11-29T22:40:16.073Z,99.90
2023-11-29T22:42:46.537Z,99.90
2023-11-29T22:45:14.681Z,99.90
2023-11-29T22:47:43.827Z,99.90
2023-11-29T22:50:12.007Z,99.90
2023-11-29T22:52:40.067Z,99.90
2023-11-29T22:55:08.935Z,99.90
2023-11-29T22:57:38.284Z,99.90
2023-11-29T23:00:08.421Z,99.90
2023-11-29T23:02:36.624Z,99.90
2023-11-29T23:05:04.862Z,99.90
2023-11-29T23:07:32.840Z,99.90
2023-11-29T23:10:00.809Z,99.90
2023-11-29T23:12:28.821Z,99.90
2023-11-29T23:14:58.272Z,99.90
2023-11-29T23:17:26.592Z,99.90
2023-11-29T23:19:54.683Z,99.90
2023-11-29T23:22:22.695Z,99.90
2023-11-29T23:24:50.777Z,99.90
2023-11-29T23:27:18.752Z,99.90
2023-11-29T23:29:46.771Z,99.90
2023-11-29T23:32:16.126Z,99.90
2023-11-29T23:34:44.188Z,99.90
2023-11-29T23:37:12.199Z,99.90
2023-11-29T23:39:40.153Z,99.90
2023-11-29T23:42:08.293Z,99.90
2023-11-29T23:44:56.244Z,99.90
2023-11-29T23:47:25.682Z,99.90
2023-11-29T23:49:53.678Z,99.90
2023-11-29T23:52:21.693Z,99.90
2023-11-29T23:54:49.657Z,99.90
2023-11-29T23:57:17.691Z,99.90
2023-11-29T23:59:45.706Z,99.90
